createdAt,value
2018-09-21T00:00:06.531Z,42.9
2018-09-21T00:02:05.276Z,43.1
2018-09-21T00:04:05.490Z,43.1
2018-09-21T00:06:05.172Z,43
2018-09-21T00:08:05.864Z,43
2018-09-21T00:10:05.690Z,43
2018-09-21T00:12:05.464Z,43
2018-09-21T00:14:10.249Z,42.9
2018-09-21T00:16:08.531Z,42.8
2018-09-21T00:18:05.624Z,42.8
2018-09-21T00:20:15.466Z,42.9
2018-09-21T00:22:13.251Z,42.8
2018-09-21T00:24:05.938Z,42.8
2018-09-21T00:26:05.870Z,42.9
2018-09-21T00:28:05.514Z,42.8
2018-09-21T00:30:05.692Z,42.9
2018-09-21T00:32:05.365Z,42.8
2018-09-21T00:34:05.329Z,42.8
2018-09-21T00:36:05.056Z,42.7
2018-09-21T00:38:06.018Z,42.7
2018-09-21T00:40:10.759Z,42.6
2018-09-21T00:42:05.410Z,42.6
2018-09-21T00:44:05.130Z,42.6
2018-09-21T00:46:05.859Z,42.6
2018-09-21T00:48:05.594Z,42.6
2018-09-21T00:50:05.788Z,42.5
2018-09-21T00:52:05.443Z,42.4
2018-09-21T00:54:05.109Z,42.3
2018-09-21T00:56:08.419Z,42.4
2018-09-21T00:58:05.104Z,42.4
2018-09-21T01:00:08.317Z,42.3
2018-09-21T01:02:05.539Z,42.3
2018-09-21T01:04:05.204Z,42.3
2018-09-21T01:06:05.963Z,42.3
2018-09-21T01:08:08.187Z,42.3
2018-09-21T01:10:05.836Z,42.3
2018-09-21T01:12:05.527Z,42.3
2018-09-21T01:14:07.778Z,42.2
2018-09-21T01:16:05.507Z,42.2
2018-09-21T01:18:05.936Z,42.1
2018-09-21T01:20:05.821Z,42
2018-09-21T01:22:05.486Z,42
2018-09-21T01:24:05.871Z,42
2018-09-21T01:26:05.092Z,42.1
2018-09-21T01:28:05.843Z,42
2018-09-21T01:30:05.549Z,41.9
2018-09-21T01:32:05.280Z,42
2018-09-21T01:34:08.552Z,41.9
2018-09-21T01:36:07.813Z,41.8
2018-09-21T01:38:08.102Z,41.8
2018-09-21T01:40:05.860Z,41.8
2018-09-21T01:42:08.341Z,41.8
2018-09-21T01:44:07.566Z,41.7
2018-09-21T01:46:05.784Z,41.7
2018-09-21T01:48:05.540Z,41.7
2018-09-21T01:50:05.270Z,41.7
2018-09-21T01:52:05.987Z,41.8
2018-09-21T01:54:05.284Z,41.9
2018-09-21T01:56:05.547Z,41.8
2018-09-21T01:58:05.252Z,41.8
2018-09-21T02:00:05.958Z,41.6
2018-09-21T02:02:05.250Z,41.6
2018-09-21T02:04:05.930Z,41.8
2018-09-21T02:06:05.637Z,41.8
2018-09-21T02:08:05.930Z,41.6
2018-09-21T02:10:10.694Z,41.6
2018-09-21T02:12:05.424Z,41.6
2018-09-21T02:14:05.916Z,41.7
2018-09-21T02:16:05.153Z,41.6
2018-09-21T02:18:20.276Z,41.6
2018-09-21T02:20:05.075Z,41.5
2018-09-21T02:22:05.778Z,41.7
2018-09-21T02:24:05.493Z,41.8
2018-09-21T02:26:05.220Z,41.6
2018-09-21T02:28:05.984Z,41.4
2018-09-21T02:30:05.715Z,41.5
2018-09-21T02:32:05.603Z,41.6
2018-09-21T02:34:05.344Z,41.4
2018-09-21T02:36:05.039Z,41.5
2018-09-21T02:38:05.824Z,41.3
2018-09-21T02:40:05.556Z,41.4
2018-09-21T02:42:05.895Z,41.4
2018-09-21T02:44:05.635Z,41.4
2018-09-21T02:46:05.347Z,41.5
2018-09-21T02:48:07.608Z,41.5
2018-09-21T02:50:05.842Z,41.3
2018-09-21T02:52:05.637Z,41.4
2018-09-21T02:54:05.355Z,41.4
2018-09-21T02:56:05.047Z,41.4
2018-09-21T02:58:05.818Z,41.3
2018-09-21T03:00:05.057Z,41.3
2018-09-21T03:02:05.782Z,41.3
2018-09-21T03:04:06.036Z,41.4
2018-09-21T03:06:10.850Z,41.5
2018-09-21T03:08:05.527Z,41.5
2018-09-21T03:10:10.207Z,41.5
2018-09-21T03:12:05.921Z,41.5
2018-09-21T03:14:10.696Z,41.5
2018-09-21T03:16:05.498Z,41.6
2018-09-21T03:18:05.448Z,41.6
2018-09-21T03:20:07.699Z,41.6
2018-09-21T03:22:05.973Z,41.6
2018-09-21T03:24:05.181Z,41.6
2018-09-21T03:26:05.911Z,41.5
2018-09-21T03:28:08.153Z,41.7
2018-09-21T03:30:05.853Z,41.7
2018-09-21T03:32:05.561Z,41.7
2018-09-21T03:34:05.899Z,41.7
2018-09-21T03:36:07.632Z,41.8
2018-09-21T03:38:05.865Z,41.8
2018-09-21T03:40:05.599Z,42
2018-09-21T03:42:07.830Z,41.6
2018-09-21T03:44:05.539Z,41.6
2018-09-21T03:46:05.314Z,41.7
2018-09-21T03:48:07.565Z,41.8
2018-09-21T03:50:07.795Z,41.8
2018-09-21T03:52:05.563Z,41.8
2018-09-21T03:54:05.286Z,41.8
2018-09-21T03:56:05.989Z,41.8
2018-09-21T03:58:08.283Z,41.8
2018-09-21T04:00:06.048Z,41.8
2018-09-21T04:02:05.810Z,41.8
2018-09-21T04:04:08.039Z,41.7
2018-09-21T04:06:05.776Z,41.7
2018-09-21T04:08:05.437Z,41.6
2018-09-21T04:10:05.146Z,41.9
2018-09-21T04:12:05.388Z,41.6
2018-09-21T04:14:05.170Z,41.8
2018-09-21T04:16:05.892Z,42
2018-09-21T04:18:05.762Z,41.9
2018-09-21T04:20:05.491Z,41.9
2018-09-21T04:22:05.183Z,42
2018-09-21T04:24:05.521Z,41.9
2018-09-21T04:26:05.300Z,41.8
2018-09-21T04:28:06.028Z,41.8
2018-09-21T04:30:05.715Z,41.9
2018-09-21T04:32:05.468Z,42
2018-09-21T04:34:05.156Z,41.9
2018-09-21T04:36:08.091Z,41.9
2018-09-21T04:38:08.423Z,42.1
2018-09-21T04:40:05.255Z,42.3
2018-09-21T04:42:10.552Z,42.2
2018-09-21T04:44:07.775Z,42.2
2018-09-21T04:46:13.255Z,42.1
2018-09-21T04:48:08.461Z,42.2
2018-09-21T04:50:07.137Z,42.2
2018-09-21T04:52:06.019Z,42.3
2018-09-21T04:54:05.721Z,42.4
2018-09-21T04:56:05.426Z,42.3
2018-09-21T04:58:07.730Z,42.3
2018-09-21T05:00:05.471Z,42.3
2018-09-21T05:02:10.935Z,42.4
2018-09-21T05:04:05.663Z,42.4
2018-09-21T05:06:05.891Z,42.5
2018-09-21T05:08:05.837Z,42.5
2018-09-21T05:10:08.153Z,42.5
2018-09-21T05:12:05.781Z,42.4
2018-09-21T05:14:11.501Z,42.5
2018-09-21T05:16:05.182Z,42.6
2018-09-21T05:18:06.294Z,42.6
2018-09-21T05:20:06.452Z,42.8
2018-09-21T05:22:07.712Z,42.6
2018-09-21T05:24:05.465Z,42.6
2018-09-21T05:26:07.661Z,42.6
2018-09-21T05:28:05.336Z,42.6
2018-09-21T05:30:07.692Z,42.5
2018-09-21T05:32:05.411Z,42.5
2018-09-21T05:34:05.221Z,42.3
2018-09-21T05:36:05.139Z,42.2
2018-09-21T05:38:08.365Z,41.8
2018-09-21T05:40:05.082Z,41.8
2018-09-21T05:42:05.788Z,42
2018-09-21T05:44:10.150Z,41.8
2018-09-21T05:46:05.825Z,41.8
2018-09-21T05:48:05.519Z,41
2018-09-21T05:50:05.387Z,40.8
2018-09-21T05:52:05.104Z,41
2018-09-21T05:54:05.827Z,40.9
2018-09-21T05:56:05.696Z,40.1
2018-09-21T05:58:05.656Z,40.4
2018-09-21T06:00:07.970Z,40
2018-09-21T06:02:05.893Z,40
2018-09-21T06:04:08.404Z,39.9
2018-09-21T06:06:05.568Z,39.9
2018-09-21T06:08:05.281Z,39.3
2018-09-21T06:10:05.293Z,39.2
2018-09-21T06:12:06.002Z,38.9
2018-09-21T06:14:08.068Z,38.6
2018-09-21T06:16:05.092Z,38.6
2018-09-21T06:18:11.019Z,37.9
2018-09-21T06:20:13.058Z,37.9
2018-09-21T06:22:05.827Z,37.9
2018-09-21T06:24:05.493Z,38.2
2018-09-21T06:26:05.228Z,38.4
2018-09-21T06:28:08.530Z,38.4
2018-09-21T06:30:05.234Z,38.2
2018-09-21T06:32:06.101Z,38.5
2018-09-21T06:34:08.407Z,38.2
2018-09-21T06:36:05.295Z,38.2
2018-09-21T06:38:08.109Z,38.6
2018-09-21T06:40:05.786Z,38.5
2018-09-21T06:42:08.013Z,38.5
2018-09-21T06:44:06.787Z,38.5
2018-09-21T06:46:05.484Z,38.6
2018-09-21T06:48:05.263Z,38.7
2018-09-21T06:50:05.977Z,38.7
2018-09-21T06:52:05.761Z,38.8
2018-09-21T06:54:05.713Z,38.8
2018-09-21T06:56:05.424Z,39.1
2018-09-21T06:58:05.448Z,39.1
2018-09-21T07:00:05.212Z,39.2
2018-09-21T07:02:06.254Z,39.5
2018-09-21T07:04:07.921Z,39.7
2018-09-21T07:06:05.627Z,39.7
2018-09-21T07:08:05.284Z,39.8
2018-09-21T07:10:11.143Z,40
2018-09-21T07:12:05.824Z,40
2018-09-21T07:14:05.028Z,40.1
2018-09-21T07:16:08.532Z,40.3
2018-09-21T07:18:05.527Z,40.3
2018-09-21T07:20:05.519Z,40.3
2018-09-21T07:22:05.253Z,40.4
2018-09-21T07:24:05.996Z,40.6
2018-09-21T07:26:05.365Z,40.5
2018-09-21T07:28:05.575Z,40.5
2018-09-21T07:30:07.783Z,40.6
2018-09-21T07:32:07.971Z,40.7
2018-09-21T07:34:08.180Z,40.8
2018-09-21T07:36:05.899Z,40.8
2018-09-21T07:38:10.663Z,40.9
2018-09-21T07:40:05.325Z,40.9
2018-09-21T07:42:05.985Z,40.8
2018-09-21T07:44:08.326Z,40.8
2018-09-21T07:46:05.102Z,40.8
2018-09-21T07:48:05.870Z,40.9
2018-09-21T07:50:05.184Z,40.8
2018-09-21T07:52:05.978Z,40.8
2018-09-21T07:54:05.301Z,40.8
2018-09-21T07:56:06.045Z,40.8
2018-09-21T07:58:05.773Z,40.8
2018-09-21T08:00:05.419Z,40.9
2018-09-21T08:02:05.096Z,41
2018-09-21T08:04:05.797Z,41.1
2018-09-21T08:06:05.510Z,41.3
2018-09-21T08:08:05.277Z,41.6
2018-09-21T08:10:05.214Z,41.5
2018-09-21T08:12:05.929Z,41.7
2018-09-21T08:14:05.643Z,41.9
2018-09-21T08:16:05.513Z,42.1
2018-09-21T08:18:07.966Z,42.5
2018-09-21T08:20:05.743Z,42.5
2018-09-21T08:22:05.426Z,42.7
2018-09-21T08:24:05.106Z,42.9
2018-09-21T08:26:05.824Z,43.2
2018-09-21T08:28:05.533Z,43.2
2018-09-21T08:30:05.307Z,43
2018-09-21T08:32:08.559Z,43.1
2018-09-21T08:34:13.642Z,43.2
2018-09-21T08:36:10.408Z,43.2
2018-09-21T08:38:05.066Z,43.2
2018-09-21T08:40:05.274Z,43.4
2018-09-21T08:42:05.043Z,43.3
2018-09-21T08:44:05.756Z,43.2
2018-09-21T08:46:06.006Z,43.1
2018-09-21T08:48:05.307Z,43.2
2018-09-21T08:50:06.029Z,43.3
2018-09-21T08:52:05.765Z,43.1
2018-09-21T08:54:05.670Z,43.1
2018-09-21T08:56:05.505Z,43.2
2018-09-21T08:58:07.810Z,43.3
2018-09-21T09:00:08.095Z,43.3
2018-09-21T09:02:08.351Z,43.2
2018-09-21T09:04:05.227Z,43.2
2018-09-21T09:06:08.522Z,43.5
2018-09-21T09:08:05.226Z,43.5
2018-09-21T09:10:07.712Z,43.5
2018-09-21T09:12:13.017Z,43.3
2018-09-21T09:14:05.784Z,43.5
2018-09-21T09:16:06.476Z,43.4
2018-09-21T09:18:05.412Z,43.7
2018-09-21T09:20:05.628Z,43.5
2018-09-21T09:22:08.814Z,43.7
2018-09-21T09:24:05.703Z,43.5
2018-09-21T09:26:07.932Z,43.5
2018-09-21T09:28:05.632Z,43.6
2018-09-21T09:30:05.503Z,43.4
2018-09-21T09:32:05.435Z,43.4
2018-09-21T09:34:07.694Z,43.5
2018-09-21T09:36:05.436Z,43.5
2018-09-21T09:38:05.349Z,43.3
2018-09-21T09:40:12.629Z,43.4
2018-09-21T09:42:10.448Z,43.6
2018-09-21T09:44:05.190Z,43.6
2018-09-21T09:46:07.922Z,43.8
2018-09-21T09:48:05.544Z,43.8
2018-09-21T09:50:05.768Z,43.5
2018-09-21T09:52:07.984Z,43.4
2018-09-21T09:54:05.716Z,43.4
2018-09-21T09:56:05.394Z,43.4
2018-09-21T09:58:05.600Z,43.5
2018-09-21T10:00:05.322Z,43.5
2018-09-21T10:02:05.256Z,43.4
2018-09-21T10:04:13.625Z,43.4
2018-09-21T10:06:10.908Z,43.2
2018-09-21T10:08:05.556Z,43.3
2018-09-21T10:10:05.253Z,43.1
2018-09-21T10:12:05.586Z,42.8
2018-09-21T10:14:07.923Z,42.7
2018-09-21T10:16:05.669Z,42.7
2018-09-21T10:18:05.685Z,42.5
2018-09-21T10:20:05.436Z,42.5
2018-09-21T10:22:05.119Z,41.8
2018-09-21T10:24:06.015Z,41.9
2018-09-21T10:26:08.135Z,41.8
2018-09-21T10:28:06.750Z,41.8
2018-09-21T10:30:06.043Z,41.6
2018-09-21T10:32:05.880Z,41.8
2018-09-21T10:34:05.716Z,41.5
2018-09-21T10:36:05.511Z,41.3
2018-09-21T10:38:05.250Z,41.4
2018-09-21T10:40:05.757Z,41.3
2018-09-21T10:42:05.825Z,41.3
2018-09-21T10:44:05.647Z,41.2
2018-09-21T10:46:05.408Z,41.2
2018-09-21T10:48:06.064Z,41.2
2018-09-21T10:50:06.538Z,41.1
2018-09-21T10:52:05.557Z,41.1
2018-09-21T10:54:05.266Z,41.1
2018-09-21T10:56:05.253Z,41
2018-09-21T10:58:05.089Z,41.1
2018-09-21T11:00:05.789Z,40.9
2018-09-21T11:02:05.565Z,40.9
2018-09-21T11:04:05.274Z,40.9
2018-09-21T11:06:07.660Z,40.8
2018-09-21T11:08:05.461Z,41
2018-09-21T11:10:07.633Z,40.8
2018-09-21T11:12:05.398Z,40.7
2018-09-21T11:14:10.104Z,40.8
2018-09-21T11:16:05.351Z,40.8
2018-09-21T11:18:05.275Z,40.8
2018-09-21T11:20:05.319Z,40.8
2018-09-21T11:22:15.358Z,40.9
2018-09-21T11:24:05.081Z,40.9
2018-09-21T11:26:05.842Z,41
2018-09-21T11:28:05.102Z,41
2018-09-21T11:30:05.888Z,41
2018-09-21T11:32:05.606Z,41
2018-09-21T11:34:07.860Z,41.1
2018-09-21T11:36:10.699Z,41.2
2018-09-21T11:38:05.394Z,41.2
2018-09-21T11:40:05.072Z,41.1
2018-09-21T11:42:08.292Z,41
2018-09-21T11:44:07.639Z,41.1
2018-09-21T11:46:08.988Z,41.2
2018-09-21T11:48:05.916Z,41.2
2018-09-21T11:50:05.738Z,41.1
2018-09-21T11:52:05.498Z,41.2
2018-09-21T11:54:05.205Z,41.2
2018-09-21T11:56:13.554Z,41
2018-09-21T11:58:05.217Z,41
2018-09-21T12:00:05.912Z,41
2018-09-21T12:02:05.638Z,41
2018-09-21T12:04:10.910Z,40.9
2018-09-21T12:06:08.245Z,40.9
2018-09-21T12:08:13.553Z,40.9
2018-09-21T12:10:05.272Z,40.9
2018-09-21T12:12:05.560Z,40.8
2018-09-21T12:14:05.245Z,40.5
2018-09-21T12:16:06.174Z,40.5
2018-09-21T12:18:07.823Z,40.7
2018-09-21T12:20:06.081Z,40.5
2018-09-21T12:22:05.981Z,40.5
2018-09-21T12:24:08.611Z,40.5
2018-09-21T12:26:07.832Z,40.2
2018-09-21T12:28:07.997Z,40.4
2018-09-21T12:30:08.360Z,40.3
2018-09-21T12:32:05.127Z,40.3
2018-09-21T12:34:05.837Z,40.1
2018-09-21T12:36:05.812Z,40.1
2018-09-21T12:38:05.933Z,40.3
2018-09-21T12:40:08.259Z,40.2
2018-09-21T12:42:05.981Z,40.2
2018-09-21T12:44:05.703Z,40
2018-09-21T12:46:05.350Z,40.2
2018-09-21T12:48:07.573Z,40.2
2018-09-21T12:50:07.858Z,40.2
2018-09-21T12:52:05.626Z,40.2
2018-09-21T12:54:17.942Z,40
2018-09-21T12:56:05.667Z,40.1
2018-09-21T12:58:05.640Z,40
2018-09-21T13:00:08.017Z,40.1
2018-09-21T13:02:08.271Z,39.9
2018-09-21T13:04:05.189Z,40
2018-09-21T13:06:06.015Z,40.1
2018-09-21T13:08:08.626Z,40.1
2018-09-21T13:10:05.437Z,39.8
2018-09-21T13:12:05.150Z,40
2018-09-21T13:14:08.385Z,39.9
2018-09-21T13:16:07.888Z,40
2018-09-21T13:18:08.338Z,39.9
2018-09-21T13:20:05.068Z,39.9
2018-09-21T13:22:05.480Z,40.1
2018-09-21T13:24:05.196Z,40
2018-09-21T13:26:05.399Z,40.1
2018-09-21T13:28:05.174Z,40.1
2018-09-21T13:30:08.479Z,40
2018-09-21T13:32:05.379Z,40
2018-09-21T13:34:05.161Z,40.1
2018-09-21T13:36:05.868Z,40
2018-09-21T13:38:05.579Z,39.7
2018-09-21T13:40:05.335Z,39.4
2018-09-21T13:42:10.290Z,38.8
2018-09-21T13:44:05.050Z,38.8
2018-09-21T13:46:05.275Z,38.7
2018-09-21T13:48:11.007Z,38.5
2018-09-21T13:50:05.252Z,38.5
2018-09-21T13:52:05.991Z,38.3
2018-09-21T13:54:05.739Z,38.4
2018-09-21T13:56:05.528Z,38
2018-09-21T13:58:05.393Z,37.2
2018-09-21T14:00:10.513Z,37
2018-09-21T14:02:12.906Z,37
2018-09-21T14:04:13.205Z,37
2018-09-21T14:06:05.901Z,37
2018-09-21T14:08:08.152Z,36.9
2018-09-21T14:10:05.873Z,36.9
2018-09-21T14:12:10.242Z,36.5
2018-09-21T14:14:05.937Z,36.4
2018-09-21T14:16:05.299Z,36.9
2018-09-21T14:18:05.714Z,36.4
2018-09-21T14:20:18.115Z,36.9
2018-09-21T14:22:10.610Z,37
2018-09-21T14:24:05.335Z,37
2018-09-21T14:26:05.059Z,36.4
2018-09-21T14:28:05.327Z,36.4
2018-09-21T14:30:08.277Z,36.4
2018-09-21T14:32:08.693Z,36.4
2018-09-21T14:34:05.686Z,36.4
2018-09-21T14:36:07.930Z,36.5
2018-09-21T14:38:13.264Z,36.6
2018-09-21T14:40:05.607Z,36.6
2018-09-21T14:42:05.325Z,36.8
2018-09-21T14:44:05.032Z,36.9
2018-09-21T14:46:05.709Z,36.4
2018-09-21T14:48:05.382Z,36.5
2018-09-21T14:50:07.642Z,36.8
2018-09-21T14:52:07.876Z,37
2018-09-21T14:54:05.624Z,36.9
2018-09-21T14:56:06.064Z,37
2018-09-21T14:58:10.855Z,37
2018-09-21T15:00:05.312Z,37
2018-09-21T15:02:06.072Z,36.6
2018-09-21T15:04:08.314Z,36.5
2018-09-21T15:06:07.580Z,36.6
2018-09-21T15:08:05.414Z,36.6
2018-09-21T15:10:10.200Z,36.3
2018-09-21T15:12:07.951Z,36.2
2018-09-21T15:14:10.676Z,36.6
2018-09-21T15:16:05.368Z,36.3
2018-09-21T15:18:07.736Z,35.9
2018-09-21T15:20:05.448Z,36
2018-09-21T15:22:07.793Z,35.3
2018-09-21T15:24:10.941Z,35.7
2018-09-21T15:26:05.677Z,35.8
2018-09-21T15:28:05.322Z,35.7
2018-09-21T15:30:06.169Z,36.2
2018-09-21T15:32:05.880Z,37
2018-09-21T15:34:05.530Z,36.3
2018-09-21T15:36:05.177Z,36.2
2018-09-21T15:38:05.872Z,36.5
2018-09-21T15:40:05.594Z,36.6
2018-09-21T15:42:05.309Z,37
2018-09-21T15:44:05.489Z,37
2018-09-21T15:46:08.208Z,37
2018-09-21T15:48:10.511Z,36.5
2018-09-21T15:50:05.285Z,36.5
2018-09-21T15:52:05.543Z,37
2018-09-21T15:54:05.247Z,36.6
2018-09-21T15:56:11.134Z,36
2018-09-21T15:58:05.852Z,36
2018-09-21T16:00:08.077Z,35.6
2018-09-21T16:02:05.755Z,35.6
2018-09-21T16:04:06.039Z,35.6
2018-09-21T16:06:06.143Z,35.8
2018-09-21T16:08:05.097Z,35.5
2018-09-21T16:10:13.389Z,35.5
2018-09-21T16:12:07.704Z,35
2018-09-21T16:14:10.524Z,35.2
2018-09-21T16:16:07.975Z,35.4
2018-09-21T16:18:05.900Z,35.4
2018-09-21T16:20:10.678Z,34.6
2018-09-21T16:22:05.930Z,34.6
2018-09-21T16:24:05.662Z,34.8
2018-09-21T16:26:05.428Z,34.8
2018-09-21T16:28:08.117Z,34.6
2018-09-21T16:30:05.823Z,34.5
2018-09-21T16:32:10.578Z,34.7
2018-09-21T16:34:05.275Z,34.7
2018-09-21T16:36:06.015Z,34.4
2018-09-21T16:38:06.008Z,34.5
2018-09-21T16:40:07.818Z,34.3
2018-09-21T16:42:05.512Z,34.3
2018-09-21T16:44:05.215Z,34.7
2018-09-21T16:46:05.919Z,34.2
2018-09-21T16:48:08.192Z,34.4
2018-09-21T16:50:05.928Z,34.4
2018-09-21T16:52:05.666Z,34.3
2018-09-21T16:54:05.354Z,34.3
2018-09-21T16:56:05.031Z,34.2
2018-09-21T16:58:13.281Z,34
2018-09-21T17:00:05.491Z,34.2
2018-09-21T17:02:05.235Z,34
2018-09-21T17:04:05.972Z,34
2018-09-21T17:06:05.688Z,33.9
2018-09-21T17:08:07.931Z,33.9
2018-09-21T17:10:05.174Z,33.9
2018-09-21T17:12:08.376Z,34.2
2018-09-21T17:14:05.114Z,34.2
2018-09-21T17:16:05.864Z,34.5
2018-09-21T17:18:05.759Z,34.3
2018-09-21T17:20:06.150Z,34.3
2018-09-21T17:22:06.025Z,34.2
2018-09-21T17:24:05.731Z,34.3
2018-09-21T17:26:05.424Z,34.4
2018-09-21T17:28:07.654Z,34.3
2018-09-21T17:30:05.337Z,34.5
2018-09-21T17:32:05.459Z,34.3
2018-09-21T17:34:07.933Z,34.3
2018-09-21T17:36:05.654Z,34.3
2018-09-21T17:38:07.929Z,34.5
2018-09-21T17:40:05.198Z,34.5
2018-09-21T17:42:05.912Z,34.5
2018-09-21T17:44:05.181Z,34.6
2018-09-21T17:46:05.874Z,34.6
2018-09-21T17:48:05.564Z,34.4
2018-09-21T17:50:05.247Z,34.4
2018-09-21T17:52:08.009Z,34.5
2018-09-21T17:54:05.674Z,34.5
2018-09-21T17:56:05.357Z,34.4
2018-09-21T17:58:08.076Z,34.1
2018-09-21T18:00:05.744Z,34.1
2018-09-21T18:02:11.033Z,34.1
2018-09-21T18:04:05.294Z,34.3
2018-09-21T18:06:05.995Z,34.1
2018-09-21T18:08:05.721Z,34
2018-09-21T18:10:05.466Z,34.2
2018-09-21T18:12:05.209Z,34
2018-09-21T18:14:06.011Z,33.8
2018-09-21T18:16:05.491Z,34
2018-09-21T18:18:08.210Z,34.1
2018-09-21T18:20:05.945Z,34.1
2018-09-21T18:22:05.654Z,33.9
2018-09-21T18:24:05.315Z,34
2018-09-21T18:26:08.854Z,34
2018-09-21T18:28:05.133Z,34
2018-09-21T18:30:05.942Z,34
2018-09-21T18:32:08.194Z,34
2018-09-21T18:34:05.498Z,34
2018-09-21T18:36:06.801Z,34
2018-09-21T18:38:05.592Z,34
2018-09-21T18:40:05.297Z,34.1
2018-09-21T18:42:05.575Z,34.1
2018-09-21T18:44:07.879Z,34.2
2018-09-21T18:46:05.556Z,34.2
2018-09-21T18:48:07.749Z,34.2
2018-09-21T18:50:05.500Z,34.2
2018-09-21T18:52:05.258Z,34.2
2018-09-21T18:54:04.993Z,34.3
2018-09-21T18:56:05.184Z,34.4
2018-09-21T18:58:13.437Z,34.4
2018-09-21T19:00:05.219Z,34.4
2018-09-21T19:02:05.963Z,34.4
2018-09-21T19:04:05.853Z,34.4
2018-09-21T19:06:10.777Z,34.5
2018-09-21T19:08:05.603Z,34.5
2018-09-21T19:10:10.372Z,34.5
2018-09-21T19:12:05.154Z,34.5
2018-09-21T19:14:05.846Z,34.6
2018-09-21T19:16:05.586Z,34.5
2018-09-21T19:18:05.493Z,34.6
2018-09-21T19:20:05.213Z,34.7
2018-09-21T19:22:05.909Z,34.7
2018-09-21T19:24:08.269Z,34.8
2018-09-21T19:26:05.984Z,34.8
2018-09-21T19:28:05.704Z,34.9
2018-09-21T19:30:06.029Z,34.9
2018-09-21T19:32:05.782Z,34.8
2018-09-21T19:34:05.506Z,34.7
2018-09-21T19:36:05.776Z,34.8
2018-09-21T19:38:05.561Z,34.8
2018-09-21T19:40:05.272Z,34.8
2018-09-21T19:42:05.984Z,34.6
2018-09-21T19:44:05.724Z,34.6
2018-09-21T19:46:05.424Z,34.8
2018-09-21T19:48:05.217Z,34.7
2018-09-21T19:50:06.012Z,34.7
2018-09-21T19:52:05.211Z,34.7
2018-09-21T19:54:05.883Z,35
2018-09-21T19:56:05.575Z,35
2018-09-21T19:58:05.266Z,35
2018-09-21T20:00:05.490Z,35.1
2018-09-21T20:02:07.736Z,34.9
2018-09-21T20:04:06.425Z,34.9
2018-09-21T20:06:05.110Z,35
2018-09-21T20:08:05.820Z,35.1
2018-09-21T20:10:05.506Z,35.2
2018-09-21T20:12:05.267Z,35.3
2018-09-21T20:14:13.539Z,35.1
2018-09-21T20:16:05.197Z,35.1
2018-09-21T20:18:05.080Z,34.9
2018-09-21T20:20:05.357Z,35
2018-09-21T20:22:08.125Z,35
2018-09-21T20:24:05.838Z,35
2018-09-21T20:26:05.561Z,35
2018-09-21T20:28:05.806Z,35
2018-09-21T20:30:08.044Z,35.2
2018-09-21T20:32:05.762Z,35.1
2018-09-21T20:34:05.444Z,35.2
2018-09-21T20:36:05.153Z,35.2
2018-09-21T20:38:08.431Z,35.3
2018-09-21T20:40:05.153Z,35.1
2018-09-21T20:42:08.357Z,35.3
2018-09-21T20:44:05.165Z,35.3
2018-09-21T20:46:05.923Z,35.3
2018-09-21T20:48:05.673Z,35.3
2018-09-21T20:50:05.369Z,35.3
2018-09-21T20:52:05.132Z,35.3
2018-09-21T20:54:05.330Z,35.1
2018-09-21T20:56:05.232Z,35.1
2018-09-21T20:58:08.477Z,35.1
2018-09-21T21:00:05.124Z,35.3
2018-09-21T21:02:10.847Z,35.1
2018-09-21T21:04:08.061Z,35.1
2018-09-21T21:06:05.746Z,35.2
2018-09-21T21:08:05.460Z,35.2
2018-09-21T21:10:05.187Z,35.2
2018-09-21T21:12:05.951Z,35.2
2018-09-21T21:14:05.705Z,35.3
2018-09-21T21:16:05.383Z,35.3
2018-09-21T21:18:05.323Z,35.3
2018-09-21T21:20:05.045Z,35.2
2018-09-21T21:22:05.823Z,35.3
2018-09-21T21:24:05.983Z,35.3
2018-09-21T21:26:08.242Z,35.3
2018-09-21T21:28:08.465Z,35.3
2018-09-21T21:30:07.686Z,35.4
2018-09-21T21:32:13.001Z,35.3
2018-09-21T21:34:05.652Z,35.4
2018-09-21T21:36:15.997Z,35.3
2018-09-21T21:38:05.278Z,35.3
2018-09-21T21:40:06.024Z,35.3
2018-09-21T21:42:05.859Z,35.4
2018-09-21T21:44:05.933Z,35.4
2018-09-21T21:46:08.205Z,35.4
2018-09-21T21:48:05.426Z,35.4
2018-09-21T21:50:05.436Z,35.4
2018-09-21T21:52:05.174Z,35.3
2018-09-21T21:54:05.920Z,35.4
2018-09-21T21:56:05.228Z,35
2018-09-21T21:58:06.035Z,35.1
2018-09-21T22:00:06.700Z,35.1
2018-09-21T22:02:05.514Z,35.1
2018-09-21T22:04:07.763Z,35.2
2018-09-21T22:06:06.030Z,35.2
2018-09-21T22:08:08.304Z,35.3
2018-09-21T22:10:04.982Z,35.3
2018-09-21T22:12:07.791Z,35.3
2018-09-21T22:14:05.535Z,35.3
2018-09-21T22:16:08.335Z,35.5
2018-09-21T22:18:05.228Z,35.5
2018-09-21T22:20:06.197Z,35.6
2018-09-21T22:22:05.887Z,35.6
2018-09-21T22:24:05.589Z,35.5
2018-09-21T22:26:05.316Z,35.5
2018-09-21T22:28:10.118Z,35.5
2018-09-21T22:30:05.776Z,35.5
2018-09-21T22:32:05.505Z,35.6
2018-09-21T22:34:05.283Z,35.3
2018-09-21T22:36:05.496Z,35.7
2018-09-21T22:38:05.219Z,35.7
2018-09-21T22:40:05.915Z,35.7
2018-09-21T22:42:05.559Z,35.8
2018-09-21T22:44:05.548Z,35.8
2018-09-21T22:46:10.281Z,35.4
2018-09-21T22:48:06.021Z,35.6
2018-09-21T22:50:15.854Z,35.4
2018-09-21T22:52:05.540Z,35.4
2018-09-21T22:54:05.299Z,35.4
2018-09-21T22:56:11.259Z,35.3
2018-09-21T22:58:05.941Z,35.4
2018-09-21T23:00:08.424Z,35.5
2018-09-21T23:02:05.685Z,35.7
2018-09-21T23:04:05.369Z,35.9
2018-09-21T23:06:05.030Z,35.7
2018-09-21T23:08:10.752Z,35.7
2018-09-21T23:10:05.512Z,35.7
2018-09-21T23:12:10.486Z,35.7
2018-09-21T23:14:05.280Z,35.7
2018-09-21T23:16:06.128Z,35.7
2018-09-21T23:18:06.008Z,35.7
2018-09-21T23:20:05.834Z,35.7
2018-09-21T23:22:05.582Z,35.7
2018-09-21T23:24:05.693Z,35.7
2018-09-21T23:26:09.302Z,35.7
2018-09-21T23:28:05.971Z,35.7
2018-09-21T23:30:05.183Z,35.7
2018-09-21T23:32:05.978Z,35.7
2018-09-21T23:34:05.657Z,35.7
2018-09-21T23:36:07.886Z,35.7
2018-09-21T23:38:05.109Z,35.7
2018-09-21T23:40:05.855Z,35.7
2018-09-21T23:42:05.596Z,35.7
2018-09-21T23:44:05.349Z,35.7
2018-09-21T23:46:05.090Z,35.7
2018-09-21T23:48:05.330Z,35.7
2018-09-21T23:50:07.557Z,35.7
2018-09-21T23:52:05.200Z,35.7
2018-09-21T23:54:06.026Z,35.8
2018-09-21T23:56:05.752Z,35.8
2018-09-21T23:58:05.564Z,35.8
